Time;durP1;ratioP1;P1;durP2;ratioP2;P2;SDS_P1;SDS_P2;PMS_P1;PMS_P2;Temp;Humidity;BMP_temperature;BMP_pressure;BME280_temperature;BME280_humidity;BME280_pressure;Samples;Min_cycle;Max_cycle;Signal;HPM_P1;HPM_P2
2022/07/16 00:02:40;;;;;;;2.75;0.80;;;;;;;;;;5028891;28;20037;-80
2022/07/16 00:05:26;;;;;;;2.08;0.90;;;;;;;;;;5030459;28;20561;-81
2022/07/16 00:08:11;;;;;;;3.08;1.40;;;;;;;;;;5031602;28;20041;-81
2022/07/16 00:10:57;;;;;;;2.22;1.00;;;;;;;;;;5046157;28;20046;-81
2022/07/16 00:13:43;;;;;;;2.63;0.77;;;;;;;;;;5030458;28;20065;-81
2022/07/16 00:16:29;;;;;;;3.00;0.70;;;;;;;;;;5028827;28;20049;-81
2022/07/16 00:19:21;;;;;;;1.95;1.02;;;;;;;;;;5045629;28;20053;-81
2022/07/16 00:22:06;;;;;;;3.50;1.85;;;;;;;;;;5030640;28;20095;-81
2022/07/16 00:24:52;;;;;;;2.45;0.90;;;;;;;;;;5030394;28;20076;-81
2022/07/16 00:27:38;;;;;;;2.55;1.00;;;;;;;;;;5046118;28;20037;-81
2022/07/16 00:30:23;;;;;;;3.17;1.13;;;;;;;;;;5047939;28;20045;-80
2022/07/16 00:33:09;;;;;;;3.70;1.23;;;;;;;;;;5047543;28;20044;-81
2022/07/16 00:35:55;;;;;;;2.15;1.10;;;;;;;;;;5049597;28;20039;-80
2022/07/16 00:38:40;;;;;;;3.78;1.38;;;;;;;;;;5047717;28;20060;-80
2022/07/16 00:41:26;;;;;;;3.17;1.17;;;;;;;;;;5047807;28;20488;-80
2022/07/16 00:44:15;;;;;;;2.97;1.20;;;;;;;;;;5049019;28;20041;-81
2022/07/16 00:47:00;;;;;;;2.95;1.10;;;;;;;;;;5035090;28;20415;-81
2022/07/16 00:49:46;;;;;;;2.10;1.20;;;;;;;;;;5033884;28;20050;-81
2022/07/16 00:52:35;;;;;;;2.70;1.73;;;;;;;;;;5048037;28;20389;-81
2022/07/16 00:55:21;;;;;;;2.63;1.63;;;;;;;;;;5048462;28;20128;-80
2022/07/16 00:58:07;;;;;;;2.88;1.63;;;;;;;;;;5049180;28;20527;-80
2022/07/16 01:00:53;;;;;;;2.50;1.52;;;;;;;;;;5047501;28;20048;-80
2022/07/16 01:03:38;;;;;;;3.38;1.25;;;;;;;;;;5048352;28;20098;-81
2022/07/16 01:06:24;;;;;;;3.60;1.08;;;;;;;;;;5035243;28;20431;-81
2022/07/16 01:09:10;;;;;;;3.03;1.40;;;;;;;;;;5033503;28;20422;-80
2022/07/16 01:11:56;;;;;;;3.20;1.27;;;;;;;;;;5049148;28;20033;-80
2022/07/16 01:14:41;;;;;;;2.40;1.20;;;;;;;;;;5048334;28;20440;-80
2022/07/16 01:17:27;;;;;;;2.50;1.40;;;;;;;;;;5047480;28;20068;-81
2022/07/16 01:20:13;;;;;;;2.28;1.08;;;;;;;;;;5048309;28;20049;-80
2022/07/16 01:22:59;;;;;;;6.53;1.35;;;;;;;;;;5034643;28;20033;-81
2022/07/16 01:25:44;;;;;;;3.05;1.27;;;;;;;;;;5048797;28;20038;-81
2022/07/16 01:28:30;;;;;;;2.42;1.42;;;;;;;;;;5034409;28;20041;-81
2022/07/16 01:31:16;;;;;;;2.33;1.10;;;;;;;;;;5048634;28;20037;-80
2022/07/16 01:37:07;;;;;;;2.25;1.10;;;;;;;;;;5031584;28;20034;-80
2022/07/16 01:39:53;;;;;;;2.72;1.20;;;;;;;;;;5033053;28;20443;-80
2022/07/16 01:42:39;;;;;;;2.63;1.42;;;;;;;;;;5047343;28;20408;-80
2022/07/16 01:45:24;;;;;;;3.08;1.23;;;;;;;;;;5047665;28;20468;-80
2022/07/16 01:48:10;;;;;;;2.45;1.20;;;;;;;;;;5033025;28;20499;-80
2022/07/16 01:50:57;;;;;;;3.78;1.88;;;;;;;;;;5047980;28;20089;-81
2022/07/16 01:53:42;;;;;;;3.60;1.48;;;;;;;;;;5047031;28;20132;-80
2022/07/16 01:56:28;;;;;;;2.58;1.30;;;;;;;;;;5046896;28;20041;-80
2022/07/16 01:59:14;;;;;;;3.42;1.35;;;;;;;;;;5032945;28;20033;-80
2022/07/16 02:01:59;;;;;;;3.70;1.40;;;;;;;;;;5047623;28;20056;-80
2022/07/16 02:04:45;;;;;;;4.18;1.35;;;;;;;;;;5032851;28;20420;-80
2022/07/16 02:07:31;;;;;;;4.25;1.85;;;;;;;;;;5047908;28;20033;-81
2022/07/16 02:10:17;;;;;;;3.20;1.42;;;;;;;;;;5045823;28;20053;-80
2022/07/16 02:13:03;;;;;;;4.05;1.90;;;;;;;;;;5046429;28;20053;-80
2022/07/16 02:15:48;;;;;;;4.00;1.20;;;;;;;;;;5032409;28;20041;-80
2022/07/16 02:18:35;;;;;;;2.17;1.38;;;;;;;;;;5033030;28;20095;-80
2022/07/16 02:21:20;;;;;;;2.88;1.45;;;;;;;;;;5031416;28;20049;-80
2022/07/16 02:24:07;;;;;;;3.33;1.20;;;;;;;;;;5046331;28;20063;-81
2022/07/16 02:26:52;;;;;;;4.93;1.60;;;;;;;;;;5047151;28;20037;-80
2022/07/16 02:29:38;;;;;;;3.70;1.52;;;;;;;;;;5046037;28;20041;-80
2022/07/16 02:32:24;;;;;;;3.78;1.73;;;;;;;;;;5047195;28;20034;-81
2022/07/16 02:35:09;;;;;;;2.83;1.63;;;;;;;;;;5047282;28;20397;-80
2022/07/16 02:37:56;;;;;;;3.95;1.33;;;;;;;;;;5032009;28;20110;-80
2022/07/16 02:40:42;;;;;;;3.38;1.55;;;;;;;;;;5030619;28;20164;-80
2022/07/16 02:43:28;;;;;;;1.90;1.10;;;;;;;;;;5047254;28;20116;-80
2022/07/16 02:46:14;;;;;;;2.95;1.30;;;;;;;;;;5032040;28;20042;-80
2022/07/16 02:48:59;;;;;;;1.77;1.00;;;;;;;;;;5045797;28;20061;-80
2022/07/16 02:51:45;;;;;;;3.00;1.25;;;;;;;;;;5047012;28;20041;-81
2022/07/16 02:54:31;;;;;;;3.05;1.13;;;;;;;;;;5046270;28;20034;-81
2022/07/16 02:57:16;;;;;;;2.03;1.10;;;;;;;;;;5046799;28;20041;-80
2022/07/16 03:00:05;;;;;;;1.60;1.00;;;;;;;;;;5046543;28;20623;-80
2022/07/16 03:02:51;;;;;;;2.05;1.00;;;;;;;;;;5031702;28;20542;-80
2022/07/16 03:05:36;;;;;;;3.40;1.17;;;;;;;;;;5031756;28;20496;-81
2022/07/16 03:08:22;;;;;;;4.75;1.48;;;;;;;;;;5046472;28;20136;-80
2022/07/16 03:11:08;;;;;;;3.15;1.00;;;;;;;;;;5044799;28;20041;-80
2022/07/16 03:13:54;;;;;;;2.13;1.05;;;;;;;;;;5031550;28;20048;-80
2022/07/16 03:16:39;;;;;;;1.52;0.75;;;;;;;;;;5045161;28;20038;-80
2022/07/16 03:19:25;;;;;;;2.28;1.10;;;;;;;;;;5046221;28;20107;-80
2022/07/16 03:22:11;;;;;;;3.47;1.38;;;;;;;;;;5032509;28;20084;-80
2022/07/16 03:24:56;;;;;;;1.85;1.00;;;;;;;;;;5045811;28;20045;-80
2022/07/16 03:27:42;;;;;;;2.63;1.30;;;;;;;;;;5046264;28;20061;-80
2022/07/16 03:30:29;;;;;;;3.72;1.35;;;;;;;;;;5046262;28;20084;-80
2022/07/16 03:33:14;;;;;;;2.20;1.20;;;;;;;;;;5029957;28;20519;-80
2022/07/16 03:36:02;;;;;;;2.97;1.30;;;;;;;;;;5044359;28;20119;-80
2022/07/16 03:39:07;;;;;;;2.83;1.10;;;;;;;;;;5030748;28;20033;-80
2022/07/16 03:41:52;;;;;;;1.88;1.08;;;;;;;;;;5046026;28;20053;-80
2022/07/16 03:44:38;;;;;;;2.42;1.00;;;;;;;;;;5045958;28;20033;-80
2022/07/16 03:47:24;;;;;;;3.65;1.40;;;;;;;;;;5045763;28;20128;-80
2022/07/16 03:50:10;;;;;;;2.22;0.90;;;;;;;;;;5043459;28;20565;-80
2022/07/16 03:52:55;;;;;;;3.70;1.42;;;;;;;;;;5031629;28;20050;-80
2022/07/16 03:55:41;;;;;;;3.35;1.70;;;;;;;;;;5029717;28;20041;-80
2022/07/16 03:58:27;;;;;;;3.22;1.10;;;;;;;;;;5030716;28;20113;-80
2022/07/16 04:01:13;;;;;;;1.70;0.88;;;;;;;;;;5044547;28;20045;-80
2022/07/16 04:03:59;;;;;;;2.42;1.33;;;;;;;;;;5045395;28;20044;-80
2022/07/16 04:06:44;;;;;;;1.98;1.27;;;;;;;;;;5044324;28;20126;-80
2022/07/16 04:09:30;;;;;;;2.97;1.40;;;;;;;;;;5045471;28;20488;-80
2022/07/16 04:12:16;;;;;;;1.75;1.10;;;;;;;;;;5045398;28;20565;-81
2022/07/16 04:15:02;;;;;;;3.42;1.02;;;;;;;;;;5031673;28;20034;-80
2022/07/16 04:17:47;;;;;;;2.53;1.42;;;;;;;;;;5043069;28;20049;-80
2022/07/16 04:20:33;;;;;;;3.05;1.17;;;;;;;;;;5045502;28;20049;-80
2022/07/16 04:23:19;;;;;;;2.25;1.20;;;;;;;;;;5030356;28;20033;-80
2022/07/16 04:26:05;;;;;;;2.78;1.38;;;;;;;;;;5045395;28;20045;-80
2022/07/16 04:28:51;;;;;;;2.65;1.52;;;;;;;;;;5045472;28;20045;-80
2022/07/16 04:31:39;;;;;;;4.25;1.52;;;;;;;;;;5031623;28;20492;-80
2022/07/16 04:34:25;;;;;;;2.45;1.10;;;;;;;;;;5043987;28;20057;-80
2022/07/16 04:37:11;;;;;;;3.83;1.20;;;;;;;;;;5030746;28;20041;-80
2022/07/16 04:39:57;;;;;;;3.95;1.17;;;;;;;;;;5043916;28;20045;-80
2022/07/16 04:42:44;;;;;;;2.40;1.20;;;;;;;;;;5029722;28;20037;-80
2022/07/16 04:45:29;;;;;;;3.17;1.17;;;;;;;;;;5030409;28;20073;-80
2022/07/16 04:48:15;;;;;;;3.42;1.40;;;;;;;;;;5043887;28;20126;-80
2022/07/16 04:51:01;;;;;;;3.13;1.40;;;;;;;;;;5044925;28;20049;-81
2022/07/16 04:53:46;;;;;;;3.75;1.05;;;;;;;;;;5043023;28;20037;-80
2022/07/16 04:56:32;;;;;;;4.43;1.20;;;;;;;;;;5031315;28;20073;-80
2022/07/16 04:59:18;;;;;;;1.70;1.10;;;;;;;;;;5030122;28;20088;-80
2022/07/16 05:05:08;;;;;;;2.30;1.08;;;;;;;;;;5028746;28;20087;-81
2022/07/16 05:07:54;;;;;;;2.33;1.15;;;;;;;;;;5030692;28;20419;-80
2022/07/16 05:10:39;;;;;;;2.60;1.20;;;;;;;;;;5030524;28;20121;-80
2022/07/16 05:13:25;;;;;;;2.55;1.30;;;;;;;;;;5045071;28;20041;-80
2022/07/16 05:16:11;;;;;;;2.75;1.08;;;;;;;;;;5045795;28;20030;-80
2022/07/16 05:18:57;;;;;;;2.47;1.08;;;;;;;;;;5048432;28;20099;-80
2022/07/16 05:21:42;;;;;;;2.50;1.38;;;;;;;;;;5048688;28;20055;-80
2022/07/16 05:24:28;;;;;;;2.38;1.20;;;;;;;;;;5033620;28;20051;-80
2022/07/16 05:27:14;;;;;;;2.30;1.10;;;;;;;;;;5047413;28;20416;-81
2022/07/16 05:30:00;;;;;;;1.63;0.90;;;;;;;;;;5048290;28;20503;-80
2022/07/16 05:32:46;;;;;;;3.22;1.30;;;;;;;;;;5047783;28;20053;-81
2022/07/16 05:35:32;;;;;;;1.73;0.93;;;;;;;;;;5046975;28;20120;-80
2022/07/16 05:38:17;;;;;;;2.97;1.27;;;;;;;;;;5032676;28;20176;-81
2022/07/16 05:41:03;;;;;;;2.53;1.00;;;;;;;;;;5033620;28;20045;-80
2022/07/16 05:43:49;;;;;;;2.60;1.13;;;;;;;;;;5048204;28;20041;-80
2022/07/16 05:46:34;;;;;;;2.60;1.40;;;;;;;;;;5033835;28;20038;-80
2022/07/16 05:49:20;;;;;;;2.55;1.15;;;;;;;;;;5047511;28;20055;-81
2022/07/16 05:52:06;;;;;;;2.10;1.10;;;;;;;;;;5033284;28;20069;-80
2022/07/16 05:54:52;;;;;;;2.50;1.02;;;;;;;;;;5048570;28;20065;-80
2022/07/16 05:57:38;;;;;;;3.00;1.23;;;;;;;;;;5034081;28;20049;-81
2022/07/16 06:00:23;;;;;;;2.30;1.42;;;;;;;;;;5034128;28;20048;-80
2022/07/16 06:03:09;;;;;;;2.72;1.10;;;;;;;;;;5033717;28;20038;-80
2022/07/16 06:05:55;;;;;;;3.28;1.00;;;;;;;;;;5047983;28;20040;-80
2022/07/16 06:08:44;;;;;;;3.35;1.13;;;;;;;;;;5047850;28;20041;-80
2022/07/16 06:11:29;;;;;;;3.75;1.40;;;;;;;;;;5032978;28;20072;-80
2022/07/16 06:14:15;;;;;;;2.75;1.05;;;;;;;;;;5046185;28;20044;-80
2022/07/16 06:17:01;;;;;;;2.47;1.13;;;;;;;;;;5033757;28;20045;-80
2022/07/16 06:19:47;;;;;;;2.70;1.40;;;;;;;;;;5045406;28;20049;-80
2022/07/16 06:22:32;;;;;;;3.35;1.13;;;;;;;;;;5032459;28;20109;-80
2022/07/16 06:25:18;;;;;;;4.65;1.30;;;;;;;;;;5047712;28;20053;-80
2022/07/16 06:28:04;;;;;;;2.95;1.17;;;;;;;;;;5047667;28;20048;-80
2022/07/16 06:30:49;;;;;;;3.28;1.00;;;;;;;;;;5047450;28;20073;-80
2022/07/16 06:33:35;;;;;;;2.85;1.77;;;;;;;;;;5046988;28;20033;-80
2022/07/16 06:36:21;;;;;;;1.92;0.95;;;;;;;;;;5047224;28;20069;-80
2022/07/16 06:39:07;;;;;;;2.47;1.25;;;;;;;;;;5032801;28;20045;-80
2022/07/16 06:41:53;;;;;;;3.97;1.58;;;;;;;;;;5032031;28;20128;-81
2022/07/16 06:44:40;;;;;;;3.17;1.20;;;;;;;;;;5032233;28;20507;-80
2022/07/16 06:47:26;;;;;;;3.45;1.27;;;;;;;;;;5032767;28;20050;-80
2022/07/16 06:50:12;;;;;;;2.35;1.10;;;;;;;;;;5046784;28;20048;-80
2022/07/16 06:52:58;;;;;;;3.45;1.27;;;;;;;;;;5045213;28;20511;-80
2022/07/16 06:55:43;;;;;;;2.58;1.33;;;;;;;;;;5047481;28;20650;-80
2022/07/16 06:58:29;;;;;;;3.17;1.50;;;;;;;;;;5046942;28;20044;-80
2022/07/16 07:01:15;;;;;;;2.38;1.10;;;;;;;;;;5045306;28;20455;-80
2022/07/16 07:04:01;;;;;;;2.60;1.05;;;;;;;;;;5046558;28;20057;-80
2022/07/16 07:06:46;;;;;;;4.22;1.55;;;;;;;;;;5032768;28;20419;-80
2022/07/16 07:09:32;;;;;;;2.65;1.33;;;;;;;;;;5046553;28;20037;-80
2022/07/16 07:12:18;;;;;;;4.43;1.50;;;;;;;;;;5031882;28;20075;-80
2022/07/16 07:15:04;;;;;;;3.53;1.10;;;;;;;;;;5046951;28;20042;-81
2022/07/16 07:17:51;;;;;;;2.33;1.20;;;;;;;;;;5044933;28;20044;-80
2022/07/16 07:20:37;;;;;;;2.47;0.98;;;;;;;;;;5044180;28;20052;-81
2022/07/16 07:23:22;;;;;;;2.85;0.98;;;;;;;;;;5030237;28;20068;-81
2022/07/16 07:26:08;;;;;;;4.03;1.27;;;;;;;;;;5045134;28;20132;-80
2022/07/16 07:28:54;;;;;;;3.08;1.27;;;;;;;;;;5046357;28;20033;-81
2022/07/16 07:31:39;;;;;;;4.28;1.30;;;;;;;;;;5044831;28;20040;-81
2022/07/16 07:34:26;;;;;;;4.05;1.00;;;;;;;;;;5031976;28;20392;-80
2022/07/16 07:37:11;;;;;;;2.70;1.00;;;;;;;;;;5046225;28;20041;-80
2022/07/16 07:39:57;;;;;;;3.42;1.30;;;;;;;;;;5045525;28;20064;-81
2022/07/16 07:42:43;;;;;;;2.30;1.17;;;;;;;;;;5046067;28;20049;-81
2022/07/16 07:45:28;;;;;;;2.45;0.98;;;;;;;;;;5031265;28;20076;-80
2022/07/16 07:48:14;;;;;;;2.75;1.20;;;;;;;;;;5031955;28;20037;-81
2022/07/16 07:51:00;;;;;;;2.65;1.30;;;;;;;;;;5045852;28;20140;-80
2022/07/16 07:53:46;;;;;;;2.25;0.90;;;;;;;;;;5045658;28;20419;-81
2022/07/16 07:56:31;;;;;;;1.90;0.90;;;;;;;;;;5029932;28;20424;-80
2022/07/16 07:59:17;;;;;;;2.78;1.10;;;;;;;;;;5044296;28;20499;-80
2022/07/16 08:02:03;;;;;;;1.77;0.63;;;;;;;;;;5046215;28;20475;-81
2022/07/16 08:04:49;;;;;;;2.60;0.80;;;;;;;;;;5044434;28;20129;-81
2022/07/16 08:07:35;;;;;;;1.83;1.08;;;;;;;;;;5030686;28;20049;-81
2022/07/16 08:10:21;;;;;;;4.90;0.77;;;;;;;;;;5030972;28;20060;-80
2022/07/16 08:13:07;;;;;;;1.42;0.70;;;;;;;;;;5043998;28;20108;-80
2022/07/16 08:15:52;;;;;;;3.42;1.00;;;;;;;;;;5031391;28;20128;-80
2022/07/16 08:18:38;;;;;;;2.47;1.05;;;;;;;;;;5031814;28;20034;-80
2022/07/16 08:21:24;;;;;;;1.30;0.57;;;;;;;;;;5044509;28;20084;-80
2022/07/16 08:27:14;;;;;;;2.22;1.17;;;;;;;;;;5040377;28;20485;-81
2022/07/16 08:29:59;;;;;;;1.80;0.93;;;;;;;;;;5030122;28;20453;-81
2022/07/16 08:32:45;;;;;;;2.05;0.98;;;;;;;;;;5031672;28;20042;-80
2022/07/16 08:35:31;;;;;;;2.50;1.02;;;;;;;;;;5044289;28;20044;-81
2022/07/16 08:38:16;;;;;;;2.60;0.85;;;;;;;;;;5029896;28;20072;-81
2022/07/16 08:41:02;;;;;;;2.92;1.13;;;;;;;;;;5030570;28;20037;-80
2022/07/16 08:43:48;;;;;;;1.90;0.82;;;;;;;;;;5030940;28;20045;-81
2022/07/16 08:46:34;;;;;;;2.20;0.93;;;;;;;;;;5044148;28;20044;-81
2022/07/16 08:49:20;;;;;;;1.70;0.70;;;;;;;;;;5045715;28;20057;-81
2022/07/16 08:52:06;;;;;;;1.83;0.70;;;;;;;;;;5047529;28;20124;-81
2022/07/16 08:54:52;;;;;;;1.77;0.80;;;;;;;;;;5048036;28;20121;-81
2022/07/16 08:57:38;;;;;;;2.92;0.73;;;;;;;;;;5048520;28;20034;-81
2022/07/16 09:00:24;;;;;;;1.10;0.65;;;;;;;;;;5033936;28;20124;-80
2022/07/16 09:03:12;;;;;;;2.28;0.80;;;;;;;;;;5033861;28;20041;-81
2022/07/16 09:05:58;;;;;;;2.50;0.90;;;;;;;;;;5047659;28;20102;-81
2022/07/16 09:08:44;;;;;;;1.38;0.63;;;;;;;;;;5048707;28;20037;-81
2022/07/16 09:11:31;;;;;;;1.52;0.63;;;;;;;;;;5035014;28;20042;-81
2022/07/16 09:14:18;;;;;;;1.98;0.75;;;;;;;;;;5035571;28;20036;-81
2022/07/16 09:17:04;;;;;;;1.08;0.40;;;;;;;;;;5033700;28;20099;-81
2022/07/16 09:19:50;;;;;;;1.27;0.57;;;;;;;;;;5033638;28;20049;-80
2022/07/16 09:22:37;;;;;;;0.80;0.47;;;;;;;;;;5033716;28;20049;-80
2022/07/16 09:25:22;;;;;;;1.17;0.43;;;;;;;;;;5033582;28;20043;-81
2022/07/16 09:28:08;;;;;;;1.65;0.80;;;;;;;;;;5047038;28;20049;-81
2022/07/16 09:30:54;;;;;;;0.98;0.43;;;;;;;;;;5049133;28;20037;-81
2022/07/16 09:33:40;;;;;;;1.60;0.57;;;;;;;;;;5046967;28;20041;-81
2022/07/16 09:36:26;;;;;;;1.15;0.40;;;;;;;;;;5047257;28;20034;-81
2022/07/16 09:39:11;;;;;;;2.47;0.45;;;;;;;;;;5047087;28;20128;-81
2022/07/16 09:41:57;;;;;;;1.05;0.50;;;;;;;;;;5044255;28;20091;-81
2022/07/16 09:44:43;;;;;;;2.15;0.60;;;;;;;;;;5048795;28;20103;-81
2022/07/16 09:47:29;;;;;;;1.48;0.50;;;;;;;;;;5033670;28;20040;-81
2022/07/16 09:50:14;;;;;;;1.13;0.50;;;;;;;;;;5046858;28;20053;-81
2022/07/16 09:53:12;;;;;;;1.77;0.50;;;;;;;;;;5047038;28;20037;-81
2022/07/16 09:56:10;;;;;;;0.70;0.40;;;;;;;;;;5033396;28;20496;-81
2022/07/16 09:58:57;;;;;;;1.33;0.50;;;;;;;;;;5033022;28;20045;-81
2022/07/16 10:01:43;;;;;;;1.70;0.30;;;;;;;;;;5032264;28;20077;-81
2022/07/16 10:04:29;;;;;;;1.05;0.57;;;;;;;;;;5047880;28;20068;-81
2022/07/16 10:07:16;;;;;;;1.30;0.30;;;;;;;;;;5032791;28;20037;-81
2022/07/16 10:10:02;;;;;;;1.48;0.40;;;;;;;;;;5046515;28;20104;-81
2022/07/16 10:12:48;;;;;;;1.17;0.60;;;;;;;;;;5047708;28;20069;-81
2022/07/16 10:15:33;;;;;;;2.53;0.47;;;;;;;;;;5047523;28;20053;-81
2022/07/16 10:18:37;;;;;;;0.90;0.50;;;;;;;;;;5047386;28;20040;-81
2022/07/16 10:21:23;;;;;;;1.50;0.57;;;;;;;;;;5032820;28;20144;-81
2022/07/16 10:24:16;;;;;;;1.30;0.57;;;;;;;;;;5032678;28;20132;-81
2022/07/16 10:27:16;;;;;;;1.77;0.60;;;;;;;;;;5033135;28;20037;-80
2022/07/16 10:30:19;;;;;;;1.08;0.40;;;;;;;;;;5033977;28;20045;-81
2022/07/16 10:33:06;;;;;;;1.35;0.30;;;;;;;;;;5032169;28;20044;-81
2022/07/16 10:36:04;;;;;;;1.13;0.40;;;;;;;;;;5032763;28;20044;-81
2022/07/16 10:39:03;;;;;;;1.27;0.40;;;;;;;;;;5031958;28;20033;-81
2022/07/16 10:42:03;;;;;;;1.45;0.43;;;;;;;;;;5031816;28;20047;-81
2022/07/16 10:44:51;;;;;;;0.80;0.30;;;;;;;;;;5031008;28;20042;-81
2022/07/16 10:47:46;;;;;;;1.10;0.45;;;;;;;;;;5032226;28;20033;-81
2022/07/16 10:50:32;;;;;;;1.30;0.40;;;;;;;;;;5032066;28;20049;-81
2022/07/16 10:53:18;;;;;;;0.85;0.38;;;;;;;;;;5045694;28;20037;-81
2022/07/16 10:56:46;;;;;;;0.85;0.30;;;;;;;;;;5031269;28;20044;-81
2022/07/16 10:59:36;;;;;;;0.68;0.38;;;;;;;;;;5032699;28;20041;-82
2022/07/16 11:02:23;;;;;;;2.08;0.60;;;;;;;;;;5045545;28;20033;-81
2022/07/16 11:05:09;;;;;;;1.75;0.47;;;;;;;;;;5046103;28;20060;-81
2022/07/16 11:08:04;;;;;;;1.17;0.73;;;;;;;;;;5045208;28;20128;-81
2022/07/16 11:10:50;;;;;;;0.77;0.35;;;;;;;;;;5031106;28;20488;-82
2022/07/16 11:13:36;;;;;;;1.00;0.30;;;;;;;;;;5045769;28;20487;-82
2022/07/16 11:16:22;;;;;;;0.43;0.30;;;;;;;;;;5032622;28;20095;-82
2022/07/16 11:19:08;;;;;;;1.15;0.28;;;;;;;;;;5031378;28;20486;-82
2022/07/16 11:21:58;;;;;;;2.15;0.60;;;;;;;;;;5031405;28;20037;-82
2022/07/16 11:24:45;;;;;;;0.90;0.63;;;;;;;;;;5031611;28;20049;-81
2022/07/16 11:27:32;;;;;;;1.40;0.75;;;;;;;;;;5031348;28;20042;-81
2022/07/16 11:30:17;;;;;;;0.75;0.52;;;;;;;;;;5046844;28;20241;-81
2022/07/16 11:33:03;;;;;;;1.00;0.40;;;;;;;;;;5031306;28;20041;-81
2022/07/16 11:36:02;;;;;;;0.88;0.30;;;;;;;;;;5044286;28;20040;-81
2022/07/16 11:38:48;;;;;;;0.45;0.35;;;;;;;;;;5030813;28;20091;-81
2022/07/16 11:41:35;;;;;;;1.10;0.40;;;;;;;;;;5029586;28;20033;-81
2022/07/16 11:44:24;;;;;;;0.77;0.30;;;;;;;;;;5031637;28;20569;-81
2022/07/16 11:47:11;;;;;;;1.25;0.50;;;;;;;;;;5031371;28;20037;-81
2022/07/16 11:49:57;;;;;;;0.60;0.30;;;;;;;;;;5045591;28;20058;-82
2022/07/16 11:52:45;;;;;;;0.93;0.30;;;;;;;;;;5031062;28;20140;-81
2022/07/16 11:55:31;;;;;;;0.75;0.32;;;;;;;;;;5029743;28;20049;-81
2022/07/16 11:58:17;;;;;;;1.00;0.40;;;;;;;;;;5030897;28;20389;-81
2022/07/16 12:01:03;;;;;;;1.45;0.30;;;;;;;;;;5045224;28;20096;-81
2022/07/16 12:03:55;;;;;;;0.60;0.30;;;;;;;;;;5030517;28;20033;-82
2022/07/16 12:06:46;;;;;;;0.80;0.30;;;;;;;;;;5031551;28;20437;-82
2022/07/16 12:09:33;;;;;;;0.80;0.30;;;;;;;;;;5030820;28;20049;-81
2022/07/16 12:12:37;;;;;;;0.65;0.40;;;;;;;;;;5030761;28;20041;-81
2022/07/16 12:15:23;;;;;;;0.82;0.30;;;;;;;;;;5044344;28;20030;-82
2022/07/16 12:18:13;;;;;;;1.23;0.30;;;;;;;;;;5030777;28;20136;-81
2022/07/16 12:21:28;;;;;;;0.60;0.20;;;;;;;;;;5045488;28;20076;-82
2022/07/16 12:24:14;;;;;;;0.60;0.30;;;;;;;;;;5044339;28;20064;-82
2022/07/16 12:27:00;;;;;;;1.75;0.30;;;;;;;;;;5049741;28;20041;-82
2022/07/16 12:29:46;;;;;;;0.95;0.28;;;;;;;;;;5048428;28;20049;-81
2022/07/16 12:32:45;;;;;;;0.70;0.40;;;;;;;;;;5047520;28;20041;-82
2022/07/16 12:35:47;;;;;;;0.50;0.30;;;;;;;;;;5034201;28;20042;-82
2022/07/16 12:38:37;;;;;;;0.55;0.30;;;;;;;;;;5048385;28;20049;-82
2022/07/16 12:41:22;;;;;;;1.10;0.30;;;;;;;;;;5048453;28;20049;-81
2022/07/16 12:44:13;;;;;;;0.70;0.20;;;;;;;;;;5048966;28;20038;-81
2022/07/16 12:46:58;;;;;;;1.08;0.32;;;;;;;;;;5034688;28;20037;-82
2022/07/16 12:49:44;;;;;;;1.38;0.30;;;;;;;;;;5048862;28;20421;-82
2022/07/16 12:52:30;;;;;;;1.17;0.43;;;;;;;;;;5035542;28;20103;-82
2022/07/16 13:01:24;;;;;;;1.10;0.20;;;;;;;;;;5043722;28;20030;-82
2022/07/16 13:04:11;;;;;;;1.30;0.22;;;;;;;;;;5048712;28;20052;-82
2022/07/16 13:06:57;;;;;;;0.95;0.20;;;;;;;;;;5034704;28;20152;-82
2022/07/16 13:09:42;;;;;;;0.50;0.20;;;;;;;;;;5048714;28;20081;-82
2022/07/16 13:12:28;;;;;;;1.38;0.57;;;;;;;;;;5048826;28;20092;-82
2022/07/16 13:15:16;;;;;;;1.65;0.47;;;;;;;;;;5033676;28;20041;-81
2022/07/16 13:18:02;;;;;;;0.25;0.10;;;;;;;;;;5048613;28;20041;-81
2022/07/16 13:20:48;;;;;;;0.75;0.30;;;;;;;;;;5033797;28;20056;-81
2022/07/16 13:23:34;;;;;;;0.82;0.30;;;;;;;;;;5033773;28;20034;-82
2022/07/16 13:26:21;;;;;;;1.98;0.45;;;;;;;;;;5047435;28;20042;-82
2022/07/16 13:29:07;;;;;;;0.65;0.32;;;;;;;;;;5047567;28;20072;-81
2022/07/16 13:31:52;;;;;;;1.20;0.20;;;;;;;;;;5033446;28;20037;-81
2022/07/16 13:34:38;;;;;;;0.30;0.20;;;;;;;;;;5048266;28;20037;-82
2022/07/16 13:37:24;;;;;;;0.95;0.30;;;;;;;;;;5032668;28;20420;-81
2022/07/16 13:40:10;;;;;;;0.35;0.15;;;;;;;;;;5033064;28;20038;-81
2022/07/16 13:42:56;;;;;;;0.95;0.20;;;;;;;;;;5033404;28;20049;-81
2022/07/16 13:45:41;;;;;;;0.85;0.30;;;;;;;;;;5048367;28;20580;-82
2022/07/16 13:48:27;;;;;;;0.80;0.20;;;;;;;;;;5034092;28;20033;-81
2022/07/16 13:51:13;;;;;;;0.13;0.10;;;;;;;;;;5033644;28;20105;-82
2022/07/16 13:53:59;;;;;;;0.40;0.20;;;;;;;;;;5047427;28;20510;-81
2022/07/16 13:56:45;;;;;;;0.52;0.20;;;;;;;;;;5033651;28;20029;-81
2022/07/16 13:59:31;;;;;;;0.47;0.20;;;;;;;;;;5033227;28;20049;-82
2022/07/16 14:02:16;;;;;;;0.65;0.20;;;;;;;;;;5047402;28;20037;-80
2022/07/16 14:05:02;;;;;;;0.45;0.10;;;;;;;;;;5046050;28;20037;-82
2022/07/16 14:07:48;;;;;;;0.77;0.30;;;;;;;;;;5045557;28;20072;-82
2022/07/16 14:10:34;;;;;;;0.47;0.17;;;;;;;;;;5045993;28;20057;-82
2022/07/16 14:13:20;;;;;;;0.65;0.30;;;;;;;;;;5047774;28;20048;-81
2022/07/16 14:16:06;;;;;;;0.50;0.10;;;;;;;;;;5046056;28;20049;-82
2022/07/16 14:18:52;;;;;;;0.40;0.22;;;;;;;;;;5047460;28;20045;-82
2022/07/16 14:21:42;;;;;;;0.70;0.30;;;;;;;;;;5047539;28;20052;-82
2022/07/16 14:24:28;;;;;;;0.47;0.20;;;;;;;;;;5046893;28;20045;-81
2022/07/16 14:27:14;;;;;;;1.38;0.20;;;;;;;;;;5030941;28;20037;-82
2022/07/16 14:29:59;;;;;;;0.82;0.20;;;;;;;;;;5045698;28;20040;-81
2022/07/16 14:32:45;;;;;;;0.75;0.20;;;;;;;;;;5047737;28;20041;-81
2022/07/16 14:35:31;;;;;;;0.60;0.28;;;;;;;;;;5047447;28;20044;-81
2022/07/16 14:38:17;;;;;;;0.70;0.13;;;;;;;;;;5032838;28;20041;-81
2022/07/16 14:41:02;;;;;;;0.90;0.20;;;;;;;;;;5045735;28;20044;-82
2022/07/16 14:43:50;;;;;;;0.63;0.20;;;;;;;;;;5033585;28;20095;-81
2022/07/16 14:46:35;;;;;;;0.20;0.10;;;;;;;;;;5031670;28;20061;-82
2022/07/16 14:49:21;;;;;;;0.55;0.10;;;;;;;;;;5032016;28;20096;-81
2022/07/16 14:52:07;;;;;;;0.75;0.20;;;;;;;;;;5031875;28;20037;-81
2022/07/16 14:54:52;;;;;;;0.60;0.30;;;;;;;;;;5046814;28;20030;-82
2022/07/16 14:57:39;;;;;;;1.20;0.30;;;;;;;;;;5033401;28;20566;-81
2022/07/16 15:00:24;;;;;;;1.05;0.50;;;;;;;;;;5045480;28;20052;-82
2022/07/16 15:03:10;;;;;;;0.70;0.20;;;;;;;;;;5046853;28;20038;-81
2022/07/16 15:05:56;;;;;;;0.43;0.30;;;;;;;;;;5033609;28;20428;-81
2022/07/16 15:08:42;;;;;;;0.50;0.22;;;;;;;;;;5045528;28;20519;-81
2022/07/16 15:11:28;;;;;;;1.25;0.30;;;;;;;;;;5018296;28;20168;-81
2022/07/16 15:14:14;;;;;;;0.82;0.22;;;;;;;;;;5046283;28;20034;-81
2022/07/16 15:17:00;;;;;;;0.90;0.55;;;;;;;;;;5046876;28;20084;-81
2022/07/16 15:19:45;;;;;;;0.63;0.20;;;;;;;;;;5030679;28;20037;-81
2022/07/16 15:22:31;;;;;;;0.30;0.13;;;;;;;;;;5031541;28;20045;-81
2022/07/16 15:25:17;;;;;;;0.65;0.30;;;;;;;;;;5031281;28;20038;-81
2022/07/16 15:28:03;;;;;;;1.10;0.20;;;;;;;;;;5031435;28;20080;-81
2022/07/16 15:30:49;;;;;;;1.40;0.30;;;;;;;;;;5044995;28;20033;-81
2022/07/16 15:33:37;;;;;;;2.13;0.52;;;;;;;;;;5046833;28;20037;-81
2022/07/16 15:36:23;;;;;;;0.85;0.30;;;;;;;;;;5031386;28;20088;-82
2022/07/16 15:39:09;;;;;;;0.47;0.10;;;;;;;;;;5029906;28;20041;-81
2022/07/16 15:41:55;;;;;;;1.33;0.55;;;;;;;;;;5030950;28;20080;-81
2022/07/16 15:44:41;;;;;;;0.60;0.28;;;;;;;;;;5045705;28;20049;-81
2022/07/16 15:47:26;;;;;;;0.45;0.20;;;;;;;;;;5046596;28;20033;-81
2022/07/16 15:50:13;;;;;;;0.75;0.30;;;;;;;;;;5045838;28;20046;-82
2022/07/16 15:52:59;;;;;;;0.55;0.10;;;;;;;;;;5044902;28;20120;-81
2022/07/16 15:55:45;;;;;;;0.52;0.25;;;;;;;;;;5032087;28;20038;-82
2022/07/16 15:58:31;;;;;;;1.02;0.30;;;;;;;;;;5031977;28;20482;-82
2022/07/16 16:01:17;;;;;;;1.40;0.30;;;;;;;;;;5030284;28;20112;-81
2022/07/16 16:04:02;;;;;;;0.90;0.40;;;;;;;;;;5044499;28;20052;-81
2022/07/16 16:06:48;;;;;;;0.55;0.13;;;;;;;;;;5045677;28;20072;-82
2022/07/16 16:09:34;;;;;;;0.77;0.30;;;;;;;;;;5045596;28;20049;-82
2022/07/16 16:12:20;;;;;;;0.30;0.20;;;;;;;;;;5046069;28;20036;-82
2022/07/16 16:15:07;;;;;;;0.68;0.20;;;;;;;;;;5045740;28;20041;-81
2022/07/16 16:17:54;;;;;;;0.68;0.25;;;;;;;;;;5030459;28;20038;-81
2022/07/16 16:20:40;;;;;;;0.75;0.20;;;;;;;;;;5045329;28;20049;-81
2022/07/16 16:23:29;;;;;;;0.77;0.30;;;;;;;;;;5045613;28;20029;-81
2022/07/16 16:26:14;;;;;;;0.50;0.20;;;;;;;;;;5045508;28;20045;-82
2022/07/16 16:29:01;;;;;;;0.85;0.25;;;;;;;;;;5045365;28;20072;-81
2022/07/16 16:31:50;;;;;;;2.15;0.40;;;;;;;;;;5030304;28;20094;-82
2022/07/16 16:34:36;;;;;;;0.77;0.20;;;;;;;;;;5031826;28;20048;-82
2022/07/16 16:37:22;;;;;;;0.77;0.20;;;;;;;;;;5045555;28;20040;-81
2022/07/16 16:40:08;;;;;;;0.40;0.10;;;;;;;;;;5045203;28;20041;-81
2022/07/16 16:42:54;;;;;;;0.98;0.20;;;;;;;;;;5030868;28;20045;-81
2022/07/16 16:45:40;;;;;;;0.50;0.13;;;;;;;;;;5045436;28;20037;-81
2022/07/16 16:48:25;;;;;;;0.65;0.25;;;;;;;;;;5044075;28;20495;-82
2022/07/16 16:51:11;;;;;;;0.45;0.15;;;;;;;;;;5043647;28;20053;-81
2022/07/16 16:53:57;;;;;;;1.27;0.40;;;;;;;;;;5044401;28;20637;-81
2022/07/16 16:56:43;;;;;;;0.57;0.20;;;;;;;;;;5044715;28;20033;-80